Tiempo atmosférico en la estación meteorológica de El Bodón Base Aérea, Salamanca (805 m.)



Fecha
DESCASC
Temp. máxima en grados centígrados (hora)
DESCASC
Temp. mínima en grados centígrados (hora)
DESCASC
Temp. media en grados centígrados
DESCASC
Racha de viento máxima en m/sg (hora)
DESCASC
Velocidad máxima media en intervalos de 10 minutos(hora)
DESCASC
Precipitaciones diarias en mm
DESCASC
Precipitaciones de 00:00 a 06:00 en mm
DESCASC
Precipitaciones de 06:00 a 12:00 en mm
DESCASC
Precipitaciones de 12:00 a 18:00 en mm
DESCASC
Precipitaciones de 18:00 a 24:00 en mm
DESCASC
19-09-2019 26.9 (17:00) 11.8 (09:00) 19.3 7.22 (17:00) 4.44 (18:30) 0 0 0 0 0
18-09-2019 26.1 (17:00) 10.4 (08:30) 18.3 7.22 (17:40) 3.61 (06:00) 4.2 0 0 2.6 1.6
17-09-2019 26.1 (14:00) 13 (00:00) 19.6 11.11 (20:00) 6.11 (15:30) 4.8 0 0 4.4 0.4
16-09-2019 23.1 (15:50) 13.7 (00:00) 18.4 6.39 (14:50) 3.61 (16:20) 0.2 0 0 0.2 0
15-09-2019 24 (15:40) 12.8 (00:00) 18.4 6.11 (17:20) 4.44 (17:30) 0 0 0 0 0
14-09-2019 23.8 (14:50) 10 (00:00) 16.9 6.67 (19:00) 4.72 (16:00) 1.2 0 0 1.2 0
13-09-2019 25.9 (16:40) 11.5 (00:00) 18.7 10.28 (15:30) 6.94 (14:30) 0 0 0 0 0
12-09-2019 27.4 (17:40) 9.7 (00:00) 18.5 12.78 (13:50) 6.94 (14:00) 0 0 0 0 0
11-09-2019 22.5 (17:20) 8.5 (00:00) 15.5 14.44 (12:10) 8.61 (12:00) 0 0 0 0 0
10-09-2019 20.2 (18:00) 8.7 (08:10) 14.5 12.5 (12:00) 7.5 (16:00) 0 0 0 0 0
09-09-2019 27.4 (15:50) 8.4 (08:20) 17.9 10.83 (17:20) 6.94 (18:50) 0 0 0 0 0
08-09-2019 27 (17:40) 8.8 (00:00) 17.9 7.78 (18:20) 3.89 (18:20) 0 0 0 0 0
07-09-2019 25.9 (17:00) 8.4 (00:00) 17.1 9.44 (00:10) 5.56 (02:10) 0 0 0 0 0
06-09-2019 24.6 (18:20) 8.7 (00:00) 16.7 9.72 (23:59) 5.28 (18:50) 0 0 0 0 0
05-09-2019 25.6 (18:00) 13.5 (00:00) 19.6 13.06 (17:10) 8.06 (15:40) 0 0 0 0 0
04-09-2019 31.9 (16:50) 12.6 (00:00) 22.3 8.33 (16:20) 4.72 (17:20) 0 0 0 0 0
03-09-2019 31.2 (17:40) 12.5 (00:00) 21.9 7.22 (18:10) 4.17 (18:10) 0 0 0 0 0
02-09-2019 29 (18:50) 13.5 (00:00) 21.3 7.78 (12:10) 4.72 (19:30) 0 0 0 0 0
01-09-2019 30.1 (17:50) 13.1 (00:00) 21.6 7.5 (17:40) 4.44 (16:10) 0 0 0 0 0
31-08-2019 32.3 (16:10) 14.1 (00:00) 23.2 10.28 (15:30) 6.11 (16:20) 0 0 0 0 0
30-08-2019 32.4 (16:50) 13.2 (00:00) 22.8 8.89 (16:00) 5.28 (15:00) 0 0 0 0 0
29-08-2019 31.3 (17:00) 12.6 (00:00) 21.9 12.22 (13:40) 7.5 (13:50) 0 0 0 0 0
28-08-2019 29.4 (17:20) 13.1 (00:00) 21.3 9.17 (13:10) 5 (13:10) 0 0 0 0 0
27-08-2019 28.3 (18:50) 12.6 (00:00) 20.4 6.11 (13:40) 4.17 (19:40) 0 0 0 0 0
26-08-2019 -- (--) -- (--) -- -- (--) -- (--) -- -- -- 0 0
25-08-2019 -- (--) -- (--) -- -- (--) -- (--) -- -- -- -- --
24-08-2019 33.2 (15:50) 14.1 (00:00) 23.7 15.83 (15:40) 4.72 (16:10) 0 0 0 0 0
23-08-2019 32.7 (15:50) 14.3 (00:00) 23.5 8.89 (13:40) 5 (12:00) 0 0 0 0 0
22-08-2019 31.3 (17:40) 14 (00:00) 22.6 7.78 (19:00) 4.44 (15:10) 0 0 0 0 0
21-08-2019 29.3 (17:50) 14.2 (00:00) 21.7 6.39 (19:50) 3.89 (01:30) 0 0 0 0 0

Gráficas

Temp. máximas Temp. mínimas Temp. medias Precipitaciones Rachas de viento máximas Velocidades máximas media en intervalos de 10 minutos

Datos horarios

Fecha y hora oficial Temperatura (ºC) Velocidad del viento (km/h) Dirección del viento Racha (km/h) Dirección de racha Precipitación (mm) Presión (hPa) Tendencia (hPa) Humedad (%)
2019-09-19 23:00:00 19.3 9 Norte 13 Norte 0 -- -- 69
2019-09-19 22:00:00 20.6 5 Sudeste 9 Sur 0 -- -- 57
2019-09-19 21:00:00 21.9 6 Sur 14 Sur 0 -- -- 52
2019-09-19 20:00:00 24.6 10 Sur 22 Sur 0 -- -- 44
2019-09-19 19:00:00 25.6 12 Sur 23 Sur 0 -- -- 41
2019-09-19 18:00:00 26 11 Sur 22 Sudeste 0 -- -- 41
2019-09-19 17:00:00 26.9 12 Sur 26 Sudeste 0 -- -- 39
2019-09-19 16:00:00 25.7 6 Sudoeste 17 Sudeste 0 -- -- 40
2019-09-19 15:00:00 24.4 4 Este 14 Nordeste 0 -- -- 51
2019-09-19 14:00:00 23.5 6 Norte 13 Nordeste 0 -- -- 57
2019-09-19 13:00:00 22.3 8 Norte 13 Norte 0 -- -- 66
2019-09-19 12:00:00 20.3 5 Norte 9 Nordeste 0 -- -- 73
2019-09-19 11:00:00 17.9 5 Norte 9 Norte 0 -- -- 79
2019-09-19 10:00:00 13.5 4 Sudeste 12 Sur 0 -- -- 91
2019-09-19 09:00:00 11.8 8 Sur 12 Sur 0 -- -- 91
2019-09-19 08:00:00 12.1 7 Sur 9 Sur 0 -- -- 90
2019-09-19 07:00:00 12.1 9 Sur 13 Sur 0 -- -- 90
2019-09-19 06:00:00 12.7 6 Sur 13 Sudeste 0 -- -- 90
2019-09-19 05:00:00 13.2 2 Sudeste 8 Sur 0 -- -- 89
2019-09-19 04:00:00 13.6 2 Sur 6 Sur 0 -- -- 87
2019-09-19 03:00:00 13.5 3 Sur 14 Sudeste 0 -- -- 90
2019-09-19 02:00:00 14.2 10 Sur 13 Sur 0 -- -- 91
2019-09-19 01:00:00 15 6 Sur 9 Sur 0 -- -- 88
2019-09-19 00:00:00 16 8 Sur 12 Sudeste 0 -- -- 82
2019-09-18 23:00:00 16.8 6 Sur 12 Sudeste 0 -- -- 78
2019-09-18 22:00:00 18.6 3 Nordeste 12 Norte 0.2 -- -- 66
2019-09-18 21:00:00 19.5 6 Norte 10 Noroeste 0.2 -- -- 65
2019-09-18 20:00:00 20.7 2 Sudeste 15 Oeste 0.4 -- -- 66
2019-09-18 19:00:00 20.1 10 Oeste 19 Sudoeste 0.8 -- -- 68
2019-09-18 18:00:00 21.3 3 Noroeste 26 Este 2.6 -- -- 65
2019-09-18 17:00:00 26.1 11 Norte 19 Norte 0 -- -- 45
2019-09-18 16:00:00 25 7 Norte 20 Noroeste 0 -- -- 47
2019-09-18 15:00:00 25.2 6 Nordeste 19 Norte 0 -- -- 50
2019-09-18 14:00:00 23.9 9 Norte 15 Norte 0 -- -- 58
2019-09-18 13:00:00 23.2 7 Oeste 26 Sur 0 -- -- 61
2019-09-18 12:00:00 20.2 4 Norte 13 Oeste 0 -- -- 69
2019-09-18 11:00:00 16.8 0 Calma 11 Sur 0 -- -- 83
2019-09-18 10:00:00 12.7 10 Sur 14 Sur 0 -- -- 96
2019-09-18 09:00:00 10.6 9 Sur 14 Sur 0 -- -- 96
2019-09-18 08:00:00 10.7 6 Sudeste 9 Sudeste 0 -- -- 95
2019-09-18 07:00:00 11 3 Norte 15 Sur 0 -- -- 95
2019-09-18 06:00:00 11.5 13 Sur 18 Sur 0 -- -- 94
2019-09-18 05:00:00 11.9 7 Sur 10 Sur 0 -- -- 94
2019-09-18 04:00:00 12.5 4 Sur 10 Sudeste 0 -- -- 92
2019-09-18 03:00:00 13.4 8 Sudeste 12 Sur 0 -- -- 90
2019-09-18 02:00:00 13.4 9 Sur 12 Sur 0 -- -- 90
2019-09-18 01:00:00 14 6 Sur 13 Noroeste 0 -- -- 89
2019-09-18 00:00:00 14.7 7 Noroeste 17 Noroeste 0 -- -- 86
2019-09-17 23:00:00 15.3 7 Sur 13 Sur 0 -- -- 84
2019-09-17 22:00:00 16 3 Oeste 14 Este 0 -- -- 80
2019-09-17 21:00:00 16 5 Sur 34 Sudeste 0 -- -- 79
2019-09-15 18:00:00 -- -- -- -- -- -- -- -- --
2019-09-15 17:00:00 22.5 10 Sudoeste 20 Sur 0 -- -- 56
2019-09-15 16:00:00 23.8 12 Sur 19 Sudeste 0 -- -- 50
2019-09-15 15:00:00 22.9 9 Sudeste 15 Sudeste 0 -- -- 52
2019-09-15 14:00:00 23 6 Este 14 Este 0 -- -- 54
2019-09-15 13:00:00 21 5 Noroeste 17 Sur 0 -- -- 65
2019-09-15 12:00:00 18 3 Oeste 9 Noroeste 0 -- -- 80
2019-09-15 11:00:00 15.4 0 Calma 11 Sur 0 -- -- 89
2019-09-15 10:00:00 14.4 2 Sudeste 11 Norte 0 -- -- 92
2019-09-15 09:00:00 13.1 8 Sur 12 Norte 0 -- -- 93
2019-09-15 08:00:00 13.1 6 Norte 10 Norte 0 -- -- 92
2019-09-15 07:00:00 13.1 4 Noroeste 14 Sur 0 -- -- 93
2019-09-15 06:00:00 13.1 10 Sur 16 Sur 0 -- -- 93
2019-09-15 05:00:00 13.3 3 Sudeste 9 Sur 0 -- -- 91
2019-09-15 04:00:00 13.6 3 Sur 8 Este 0 -- -- 89
2019-09-15 03:00:00 13.9 2 Nordeste 8 Este 0 -- -- 88
2019-09-15 02:00:00 13.6 3 Noroeste 8 Nordeste 0 -- -- 91
2019-09-15 01:00:00 14.4 5 Sur 10 Sudeste 0 -- -- 88
2019-09-15 00:00:00 15.1 6 Sur 12 Sur 0 -- -- 85
2019-09-14 23:00:00 15.7 8 Sur 11 Sur 0 -- -- 83
2019-09-14 22:00:00 16 6 Sur 10 Sur 0 -- -- 83
2019-09-14 21:00:00 17.1 8 Sur 16 Sudoeste 0 -- -- 77
2019-09-14 20:00:00 18.1 13 Sur 24 Sur 0 -- -- 72
2019-09-14 19:00:00 19.1 14 Sur 24 Sur 0 -- -- 68
2019-09-14 18:00:00 19 13 Sur 21 Sur 0 -- -- 75
2019-09-14 17:00:00 17.8 16 Sur 24 Sur 0 -- -- 79
2019-09-14 16:00:00 18.5 17 Sur 23 Sur 1.2 -- -- 74
2019-09-14 15:00:00 23.4 8 Sur 15 Sudeste 0 -- -- 49
2019-09-14 14:00:00 22.8 9 Sudeste 21 Sudeste 0 -- -- 47
2019-09-14 13:00:00 21.5 5 Noroeste 16 Norte 0 -- -- 54
2019-09-14 12:00:00 19.7 10 Norte 18 Norte 0 -- -- 62
2019-09-14 11:00:00 15.7 9 Norte 13 Norte 0 -- -- 77
2019-09-14 10:00:00 12.2 5 Sur 12 Sur 0 -- -- 89
2019-09-14 09:00:00 10.5 3 Este 5 Sur 0 -- -- 90
2019-09-14 08:00:00 10.3 4 Noroeste 9 Sur 0 -- -- 91
2019-09-14 07:00:00 10.1 8 Sur 13 Sudeste 0 -- -- 89
2019-09-14 06:00:00 -- -- -- -- -- -- -- -- --
2019-09-14 05:00:00 12.2 2 Norte 13 Sur 0 -- -- 81
2019-09-14 04:00:00 13.3 3 Norte 10 Norte 0 -- -- 78
2019-09-14 03:00:00 13.2 5 Norte 9 Sur 0 -- -- 77
2019-09-14 02:00:00 13.3 3 Sudoeste 7 Sur 0 -- -- 76
2019-09-14 01:00:00 14.5 4 Norte 13 Sur 0 -- -- 73
2019-09-14 00:00:00 14.9 10 Sur 15 Sur 0 -- -- 72
2019-09-13 23:00:00 16 10 Sur 14 Sur 0 -- -- 67
2019-09-13 22:00:00 17.7 10 Sur 17 Sur 0 -- -- 61
2019-09-13 21:00:00 19.7 8 Sudoeste 17 Sur 0 -- -- 53
2019-09-13 20:00:00 21.4 9 Sur 33 Sur 0 -- -- 48
2019-09-13 19:00:00 22.3 5 Sur 18 Sur 0 -- -- 47
2019-09-13 18:00:00 23 14 Sur 26 Sur 0 -- -- 43
2019-09-13 17:00:00 24.7 16 Sur 30 Sudeste 0 -- -- 39
2019-09-13 16:00:00 25 16 Nordeste 37 Nordeste 0 -- -- 34
2019-09-13 15:00:00 24.4 19 Nordeste 36 Norte 0 -- -- 34
2019-09-13 14:00:00 25.3 24 Nordeste 37 Nordeste 0 -- -- 32
2019-09-13 13:00:00 24.3 17 Nordeste 30 Este 0 -- -- 39
2019-09-13 12:00:00 21.1 15 Norte 26 Norte 0 -- -- 51
2019-09-13 11:00:00 16.7 10 Norte 19 Norte 0 -- -- 65
2019-09-13 10:00:00 14.3 5 Norte 12 Norte 0 -- -- 72
2019-09-13 09:00:00 11.9 5 Sur 14 Sur 0 -- -- 83
2019-09-13 08:00:00 12 2 Oeste 8 Norte 0 -- -- 80
2019-09-13 07:00:00 13.1 5 Noroeste 8 Norte 0 -- -- 75
2019-09-13 06:00:00 13.2 9 Sur 12 Sur 0 -- -- 77
2019-09-13 05:00:00 14.8 2 Norte 8 Norte 0 -- -- 70
2019-09-13 04:00:00 15.4 4 Sur 12 Este 0 -- -- 69
2019-09-13 03:00:00 16.7 0 Calma 11 Sur 0 -- -- 63
2019-09-13 02:00:00 16.8 7 Sur 14 Sur 0 -- -- 64
2019-09-13 01:00:00 17.5 10 Sur 19 Sur 0 -- -- 61
2019-09-13 00:00:00 19.5 6 Sur 12 Sur 0 -- -- 54
2019-09-12 23:00:00 20.9 5 Sur 12 Sur 0 -- -- 49
2019-09-12 22:00:00 23.2 6 Sur 14 Sur 0 -- -- 43
2019-09-12 21:00:00 24.4 8 Nordeste 24 Nordeste 0 -- -- 37
2019-09-12 20:00:00 25.5 15 Nordeste 30 Nordeste 0 -- -- 36
2019-09-12 19:00:00 26.3 14 Nordeste 34 Nordeste 0 -- -- 36
2019-09-12 18:00:00 27.2 19 Nordeste 38 Nordeste 0 -- -- 35
2019-09-12 17:00:00 26.8 19 Norte 38 Norte 0 -- -- 35
2019-09-12 16:00:00 26.2 21 Nordeste 41 Norte 0 -- -- 36
2019-09-12 15:00:00 25.4 23 Norte 42 Norte 0 -- -- 36
2019-09-12 14:00:00 24.2 25 Nordeste 46 Norte 0 -- -- 38
2019-09-12 13:00:00 22.5 22 Nordeste 40 Norte 0 -- -- 42
2019-09-12 12:00:00 19.6 14 Norte 24 Noroeste 0 -- -- 51
2019-09-12 11:00:00 15.8 12 Norte 22 Nordeste 0 -- -- 63
2019-09-12 10:00:00 12.4 10 Norte 17 Norte 0 -- -- 75
2019-09-12 09:00:00 10.3 8 Norte 15 Norte 0 -- -- 82
2019-09-12 08:00:00 10.1 5 Norte 11 Norte 0 -- -- 81
2019-09-12 07:00:00 10.3 7 Norte 9 Norte 0 -- -- 80
2019-09-12 06:00:00 11.3 0 Calma 8 Norte 0 -- -- 74
2019-09-12 05:00:00 12.3 6 Norte 14 Norte 0 -- -- 71
2019-09-12 04:00:00 13.4 9 Norte 24 Nordeste 0 -- -- 67
2019-09-12 03:00:00 14.1 11 Norte 18 Norte 0 -- -- 64
2019-09-12 02:00:00 14.7 4 Norte 12 Noroeste 0 -- -- 61
2019-09-12 01:00:00 15.3 6 Norte 18 Norte 0 -- -- 58
2019-09-12 00:00:00 17.1 12 Nordeste 32 Nordeste 0 -- -- 53
2019-09-11 23:00:00 17.6 12 Nordeste 26 Nordeste 0 -- -- 51
2019-09-11 22:00:00 18.7 13 Nordeste 25 Norte 0 -- -- 47
2019-09-11 21:00:00 19.7 13 Nordeste 36 Nordeste 0 -- -- 45
2019-09-11 20:00:00 21.1 19 Nordeste 44 Nordeste 0 -- -- 41
2019-09-11 19:00:00 21.9 27 Nordeste 45 Norte 0 -- -- 40
2019-09-11 18:00:00 22.2 25 Nordeste 43 Norte 0 -- -- 39
2019-09-11 17:00:00 22.1 26 Nordeste 45 Norte 0 -- -- 40
2019-09-11 16:00:00 21.8 19 Nordeste 41 Nordeste 0 -- -- 41
2019-09-11 15:00:00 20.9 25 Nordeste 47 Nordeste 0 -- -- 41
2019-09-11 14:00:00 19.8 30 Nordeste 49 Nordeste 0 -- -- 43
2019-09-11 13:00:00 19 24 Nordeste 52 Nordeste 0 -- -- 44
2019-09-11 12:00:00 17.3 31 Nordeste 51 Norte 0 -- -- 48
2019-09-11 11:00:00 16.1 21 Nordeste 49 Nordeste 0 -- -- 51
2019-09-11 10:00:00 12.9 12 Nordeste 26 Nordeste 0 -- -- 66
2019-09-11 09:00:00 9.2 6 Norte 13 Norte 0 -- -- 82
2019-09-11 08:00:00 9.6 10 Norte 22 Norte 0 -- -- 77
2019-09-11 07:00:00 10.3 11 Nordeste 26 Este 0 -- -- 76
2019-09-11 06:00:00 11.1 13 Nordeste 28 Nordeste 0 -- -- 73
2019-09-11 05:00:00 10 8 Norte 22 Nordeste 0 -- -- 71
2019-09-11 04:00:00 11.2 10 Nordeste 20 Nordeste 0 -- -- 66
2019-09-11 03:00:00 12 12 Nordeste 26 Nordeste 0 -- -- 63
2019-09-11 02:00:00 13 14 Nordeste 27 Nordeste 0 -- -- 59
2019-09-11 01:00:00 12.4 9 Norte 13 Norte 0 -- -- 59
2019-09-11 00:00:00 13.3 4 Norte 21 Norte 0 -- -- 56
2019-09-10 23:00:00 14.6 13 Norte 29 Norte 0 -- -- 53
2019-09-10 22:00:00 15.7 17 Noroeste 36 Noroeste 0 -- -- 47
2019-09-10 21:00:00 17 18 Noroeste 38 Noroeste 0 -- -- 42
2019-09-10 20:00:00 18.7 19 Noroeste 38 Norte 0 -- -- 36
2019-09-10 19:00:00 19.7 20 Norte 40 Noroeste 0 -- -- 33
2019-09-10 18:00:00 20.2 18 Norte 35 Norte 0 -- -- 32
2019-09-10 17:00:00 20 18 Norte 44 Norte 0 -- -- 33
2019-09-10 16:00:00 19.3 27 Norte 40 Norte 0 -- -- 34
2019-09-10 15:00:00 18.5 23 Norte 40 Norte 0 -- -- 35
2019-09-10 14:00:00 17.6 20 Norte 38 Nordeste 0 -- -- 37
2019-09-10 13:00:00 16.4 20 Norte 38 Noroeste 0 -- -- 41
2019-09-10 12:00:00 15 24 Norte 45 Norte 0 -- -- 45
2019-09-10 11:00:00 13 22 Norte 37 Norte 0 -- -- 56
2019-09-10 10:00:00 10.9 21 Norte 34 Norte 0 -- -- 66
2019-09-10 09:00:00 9.2 18 Norte 33 Norte 0 -- -- 75
2019-09-10 08:00:00 8.9 15 Noroeste 37 Noroeste 0 -- -- 75
2019-09-10 07:00:00 10.1 25 Noroeste 39 Noroeste 0 -- -- 74
2019-09-10 06:00:00 10.9 19 Noroeste 28 Noroeste 0 -- -- 91
2019-09-10 05:00:00 10.6 9 Noroeste 15 Oeste 0 -- -- 91
2019-09-10 04:00:00 10.9 10 Noroeste 17 Noroeste 0 -- -- 90
2019-09-10 03:00:00 11.7 11 Noroeste 18 Noroeste 0 -- -- 87
2019-09-10 02:00:00 12.8 12 Noroeste 26 Noroeste 0 -- -- 82
2019-09-10 01:00:00 13.9 17 Noroeste 25 Noroeste 0 -- -- 78
2019-09-10 00:00:00 14.9 12 Noroeste 30 Noroeste 0 -- -- 70
2019-09-09 23:00:00 16.4 21 Oeste 33 Oeste 0 -- -- 63
2019-09-09 22:00:00 17.9 18 Noroeste 30 Oeste 0 -- -- 55
2019-09-09 21:00:00 19.7 22 Noroeste 35 Noroeste 0 -- -- 50
2019-09-09 20:00:00 22.1 19 Noroeste 34 Noroeste 0 -- -- 43
2019-09-09 19:00:00 23.6 24 Noroeste 36 Noroeste 0 -- -- 33
2019-09-09 18:00:00 24.5 19 Noroeste 39 Noroeste 0 -- -- 27
2019-09-09 17:00:00 25.8 19 Noroeste 36 Oeste 0 -- -- 25
2019-09-09 16:00:00 27.3 14 Noroeste 29 Oeste 0 -- -- 23
2019-09-09 15:00:00 26.5 15 Noroeste 29 Noroeste 0 -- -- 23
2019-09-09 14:00:00 25.5 11 Oeste 24 Sudoeste 0 -- -- 26
2019-09-09 13:00:00 24.3 13 Noroeste 22 Noroeste 0 -- -- 28
2019-09-09 12:00:00 22.5 5 Oeste 16 Oeste 0 -- -- 29
2019-09-09 11:00:00 19.9 4 Nordeste 13 Noroeste 0 -- -- 37
2019-09-09 10:00:00 14.4 6 Sur 13 Sudeste 0 -- -- 63
2019-09-09 09:00:00 9.1 10 Sur 17 Sudeste 0 -- -- 78
2019-09-09 08:00:00 8.8 10 Sur 15 Sudeste 0 -- -- 75
2019-09-09 07:00:00 9.4 12 Sur 14 Sur 0 -- -- 72
2019-09-09 06:00:00 10.6 12 Sur 16 Sur 0 -- -- 67
2019-09-09 05:00:00 10.2 13 Sur 16 Sur 0 -- -- 71
2019-09-09 04:00:00 11.8 9 Sur 16 Sur 0 -- -- 63
2019-09-09 03:00:00 12.1 11 Sur 13 Sur 0 -- -- 61
2019-09-09 02:00:00 13 10 Sur 14 Sur 0 -- -- 58
2019-09-09 01:00:00 14.4 8 Sur 12 Sur 0 -- -- 54
2019-09-09 00:00:00 16.8 8 Sur 10 Sur 0 -- -- 44
2019-09-08 23:00:00 19.7 3 Norte 6 Norte 0 -- -- 35
2019-09-08 22:00:00 21.1 5 Norte 9 Noroeste 0 -- -- 32
2019-09-08 21:00:00 22.6 4 Noroeste 15 Norte 0 -- -- 29
2019-09-08 20:00:00 25.3 8 Norte 23 Noroeste 0 -- -- 27
2019-09-08 19:00:00 26.2 9 Norte 28 Noroeste 0 -- -- 26
2019-09-08 18:00:00 26.5 10 Nordeste 24 Norte 0 -- -- 27
2019-09-08 17:00:00 26.3 9 Nordeste 25 Norte 0 -- -- 28
2019-09-08 16:00:00 26.1 6 Norte 24 Noroeste 0 -- -- 29
2019-09-08 15:00:00 24.9 9 Noroeste 18 Norte 0 -- -- 34
2019-09-08 14:00:00 22.5 10 Norte 16 Norte 0 -- -- 39
2019-09-08 13:00:00 20.1 8 Norte 17 Noroeste 0 -- -- 46
2019-09-08 12:00:00 17.3 6 Norte 14 Norte 0 -- -- 49
2019-09-08 11:00:00 14.5 7 Norte 12 Noroeste 0 -- -- 57
2019-09-08 10:00:00 12 5 Norte 9 Norte 0 -- -- 69
2019-09-08 09:00:00 9.2 2 Noroeste 8 Noroeste 0 -- -- 79
2019-09-08 08:00:00 9.9 2 Noroeste 13 Norte 0 -- -- 75
2019-09-08 07:00:00 10.4 5 Noroeste 12 Noroeste 0 -- -- 70
2019-09-08 06:00:00 10.7 5 Noroeste 9 Noroeste 0 -- -- 66
2019-09-08 05:00:00 10.5 5 Sur 6 Sudeste 0 -- -- 61
2019-09-08 04:00:00 12.5 3 Noroeste 9 Norte 0 -- -- 52
2019-09-08 03:00:00 14.4 5 Norte 13 Norte 0 -- -- 45
2019-09-08 02:00:00 14.9 0 Calma 10 Norte 0 -- -- 43
2019-09-08 01:00:00 16.3 7 Norte 13 Nordeste 0 -- -- 39
2019-09-08 00:00:00 18.8 9 Nordeste 20 Nordeste 0 -- -- 32
2019-09-07 23:00:00 19.3 11 Nordeste 18 Nordeste 0 -- -- 32
2019-09-07 22:00:00 20.2 5 Norte 17 Nordeste 0 -- -- 35
2019-09-07 21:00:00 22.2 9 Nordeste 25 Norte 0 -- -- 33
2019-09-07 20:00:00 24.5 13 Nordeste 24 Norte 0 -- -- 31
2019-09-07 19:00:00 25.6 9 Nordeste 23 Nordeste 0 -- -- 30
2019-09-07 18:00:00 25.7 12 Nordeste 25 Norte 0 -- -- 30
2019-09-07 17:00:00 25.9 13 Norte 27 Norte 0 -- -- 30
2019-09-07 16:00:00 25.2 17 Norte 30 Norte 0 -- -- 31
2019-09-07 15:00:00 23.8 14 Norte 26 Norte 0 -- -- 34
2019-09-07 14:00:00 21.5 14 Norte 24 Norte 0 -- -- 39
2019-09-07 13:00:00 19.7 14 Norte 27 Noroeste 0 -- -- 42
2019-09-07 12:00:00 16.8 12 Norte 21 Norte 0 -- -- 48
2019-09-07 11:00:00 13.9 13 Norte 21 Norte 0 -- -- 58
2019-09-07 10:00:00 10.8 9 Norte 12 Norte 0 -- -- 68
2019-09-07 09:00:00 8.9 8 Norte 14 Norte 0 -- -- 76
2019-09-07 08:00:00 8.4 9 Norte 21 Norte 0 -- -- 77
2019-09-07 07:00:00 8.9 13 Norte 21 Norte 0 -- -- 74
2019-09-07 06:00:00 9.7 12 Norte 22 Norte 0 -- -- 69
2019-09-07 05:00:00 10.5 11 Norte 18 Noroeste 0 -- -- 66
2019-09-07 04:00:00 11.6 13 Norte 24 Norte 0 -- -- 61
2019-09-07 03:00:00 12.6 15 Norte 31 Nordeste 0 -- -- 58
2019-09-07 02:00:00 13.9 18 Norte 31 Norte 0 -- -- 53
2019-09-07 01:00:00 15.5 15 Norte 34 Nordeste 0 -- -- 47
2019-09-07 00:00:00 16.8 17 Nordeste 35 Norte 0 -- -- 43
2019-09-06 23:00:00 18.1 17 Nordeste 31 Nordeste 0 -- -- 40
2019-09-06 22:00:00 19.4 15 Nordeste 29 Nordeste 0 -- -- 38
2019-09-06 21:00:00 21.1 11 Nordeste 30 Nordeste 0 -- -- 30
2019-09-06 20:00:00 23.1 18 Nordeste 32 Nordeste 0 -- -- 26
2019-09-06 19:00:00 24.1 15 Norte 30 Norte 0 -- -- 26
2019-09-06 18:00:00 24.4 16 Norte 29 Norte 0 -- -- 26
2019-09-06 17:00:00 24.2 14 Norte 32 Norte 0 -- -- 27
2019-09-06 16:00:00 23.3 16 Norte 31 Norte 0 -- -- 29
2019-09-06 15:00:00 22.3 18 Norte 33 Norte 0 -- -- 32
2019-09-06 14:00:00 20.7 18 Norte 31 Norte 0 -- -- 38
2019-09-06 13:00:00 19 17 Norte 30 Norte 0 -- -- 43
2019-09-06 12:00:00 17.1 17 Norte 29 Norte 0 -- -- 51
2019-09-06 11:00:00 14.7 11 Norte 19 Norte 0 -- -- 57
2019-09-06 10:00:00 11.6 7 Norte 18 Norte 0 -- -- 68
2019-09-06 09:00:00 9.5 10 Norte 16 Norte 0 -- -- 78
2019-09-06 08:00:00 8.7 6 Norte 14 Norte 0 -- -- 79
2019-09-06 07:00:00 9.5 6 Norte 15 Norte 0 -- -- 76
2019-09-06 06:00:00 10.3 9 Norte 18 Norte 0 -- -- 72
2019-09-06 05:00:00 11.4 12 Norte 24 Norte 0 -- -- 70
2019-09-06 04:00:00 12.2 13 Norte 22 Nordeste 0 -- -- 67
2019-09-06 03:00:00 13.2 14 Norte 28 Norte 0 -- -- 62
2019-09-06 02:00:00 14.3 17 Norte 28 Norte 0 -- -- 59
2019-09-06 01:00:00 15.2 16 Nordeste 26 Nordeste 0 -- -- 57
2019-09-06 00:00:00 16.5 16 Nordeste 38 Nordeste 0 -- -- 51
2019-09-05 23:00:00 17.7 19 Nordeste 41 Nordeste 0 -- -- 47
2019-09-05 22:00:00 19.2 18 Nordeste 34 Norte 0 -- -- 36
2019-09-05 21:00:00 20.8 18 Nordeste 34 Norte 0 -- -- 35
2019-09-05 20:00:00 23.4 22 Nordeste 34 Nordeste 0 -- -- 29
2019-09-05 19:00:00 24.7 20 Nordeste 37 Norte 0 -- -- 27
2019-09-05 18:00:00 25.6 17 Nordeste 47 Nordeste 0 -- -- 28
2019-09-05 17:00:00 25 27 Nordeste 45 Nordeste 0 -- -- 31
2019-09-05 16:00:00 24.9 27 Nordeste 46 Nordeste 0 -- -- 35
2019-09-05 15:00:00 24.5 27 Nordeste 44 Nordeste 0 -- -- 39
2019-09-05 14:00:00 23.5 22 Nordeste 43 Nordeste 0 -- -- 42
2019-09-05 13:00:00 21.3 26 Nordeste 44 Norte 0 -- -- 48
2019-09-05 12:00:00 19.7 24 Nordeste 45 Norte 0 -- -- 53
2019-09-05 11:00:00 17.8 25 Nordeste 40 Nordeste 0 -- -- 59
2019-09-05 10:00:00 15.5 27 Nordeste 42 Nordeste 0 -- -- 65
2019-09-05 09:00:00 14 20 Norte 32 Norte 0 -- -- 64
2019-09-05 08:00:00 13.6 18 Norte 31 Nordeste 0 -- -- 63
2019-09-05 07:00:00 14.5 16 Norte 40 Norte 0 -- -- 57
2019-09-05 06:00:00 14.8 21 Norte 37 Nordeste 0 -- -- 64
2019-09-05 05:00:00 15.3 20 Nordeste 40 Norte 0 -- -- 66
2019-09-05 04:00:00 16.3 19 Norte 31 Norte 0 -- -- 64
2019-09-05 03:00:00 17.9 20 Norte 31 Norte 0 -- -- 58
2019-09-05 02:00:00 19.2 12 Norte 24 Nordeste 0 -- -- 48
2019-09-05 01:00:00 20.7 12 Norte 23 Noroeste 0 -- -- 44
2019-09-05 00:00:00 21.9 10 Noroeste 18 Noroeste 0 -- -- 45
2019-09-04 23:00:00 22.6 9 Noroeste 18 Noroeste 0 -- -- 28
2019-09-04 22:00:00 23.9 2 Noroeste 9 Norte 0 -- -- 25
2019-09-04 21:00:00 26.6 6 Norte 17 Norte 0 -- -- 22
2019-09-04 20:00:00 29.3 13 Norte 23 Norte 0 -- -- 20
2019-09-04 19:00:00 30.3 12 Noroeste 27 Noroeste 0 -- -- 20
2019-09-04 18:00:00 31.4 10 Noroeste 27 Noroeste 0 -- -- 18
2019-09-04 17:00:00 31.7 11 Sudoeste 30 Oeste 0 -- -- 15
2019-09-04 16:00:00 31.5 7 Noroeste 21 Oeste 0 -- -- 19
2019-09-04 15:00:00 29.8 11 Oeste 24 Noroeste 0 -- -- 26
2019-09-04 14:00:00 28.6 13 Noroeste 29 Noroeste 0 -- -- 29
2019-09-04 13:00:00 27.2 7 Norte 18 Nordeste 0 -- -- 37
2019-09-04 12:00:00 25.2 6 Norte 12 Norte 0 -- -- 45
2019-09-04 11:00:00 23 8 Norte 11 Norte 0 -- -- 49
2019-09-04 10:00:00 18.6 5 Sudeste 12 Sudeste 0 -- -- 61
2019-09-04 09:00:00 14 10 Sur 13 Sur 0 -- -- 70
2019-09-04 08:00:00 13 10 Sur 15 Sur 0 -- -- 69
2019-09-04 07:00:00 12.6 12 Sur 16 Sur 0 -- -- 71
2019-09-04 06:00:00 12.8 11 Sur 15 Sur 0 -- -- 72
2019-09-04 05:00:00 13.7 9 Sur 16 Sur 0 -- -- 71
2019-09-04 04:00:00 15.1 3 Sudoeste 6 Sur 0 -- -- 64
2019-09-04 03:00:00 15.3 3 Sur 14 Sur 0 -- -- 64
2019-09-04 02:00:00 16.7 11 Sur 13 Sudeste 0 -- -- 60
2019-09-04 01:00:00 19.5 3 Sudeste 6 Nordeste 0 -- -- 45
2019-09-04 00:00:00 21.3 4 Nordeste 8 Nordeste 0 -- -- 40
2019-09-03 23:00:00 23 5 Nordeste 10 Nordeste 0 -- -- 36
2019-09-03 22:00:00 24.4 4 Nordeste 9 Norte 0 -- -- 34
2019-09-03 21:00:00 26.8 6 Norte 18 Norte 0 -- -- 30
2019-09-03 20:00:00 29.4 14 Norte 22 Norte 0 -- -- 27
2019-09-03 19:00:00 30.3 10 Norte 26 Noroeste 0 -- -- 28
2019-09-03 18:00:00 31.2 13 Noroeste 24 Oeste 0 -- -- 26
2019-09-03 17:00:00 30.9 8 Norte 21 Noroeste 0 -- -- 31
2019-09-03 16:00:00 29.9 8 Norte 19 Norte 0 -- -- 33
2019-09-03 15:00:00 28 8 Norte 19 Nordeste 0 -- -- 35
2019-09-03 14:00:00 25.3 8 Norte 15 Noroeste 0 -- -- 40
2019-09-03 13:00:00 22.5 6 Norte 15 Noroeste 0 -- -- 46
2019-09-03 12:00:00 19.7 7 Noroeste 14 Nordeste 0 -- -- 52
2019-09-03 11:00:00 17.2 7 Norte 14 Noroeste 0 -- -- 59
2019-09-03 10:00:00 14.7 10 Norte 14 Norte 0 -- -- 66
2019-09-03 09:00:00 13.1 10 Norte 14 Norte 0 -- -- 72
2019-09-03 08:00:00 12.6 8 Noroeste 10 Noroeste 0 -- -- 72
2019-09-03 07:00:00 13.5 7 Norte 12 Norte 0 -- -- 67
2019-09-03 06:00:00 14.3 8 Norte 12 Norte 0 -- -- 64
2019-09-03 05:00:00 15.5 7 Norte 18 Norte 0 -- -- 59
2019-09-03 04:00:00 17 12 Norte 21 Norte 0 -- -- 54
2019-09-03 03:00:00 18.3 9 Norte 19 Norte 0 -- -- 50
2019-09-03 02:00:00 19.6 12 Norte 19 Norte 0 -- -- 46
2019-09-03 01:00:00 20.4 11 Norte 17 Norte 0 -- -- 44
2019-09-03 00:00:00 21.4 11 Norte 21 Nordeste 0 -- -- 45
2019-09-02 23:00:00 23.4 10 Nordeste 24 Nordeste 0 -- -- 42
2019-09-02 22:00:00 24.5 12 Nordeste 24 Nordeste 0 -- -- 42
2019-09-02 21:00:00 26 12 Nordeste 25 Nordeste 0 -- -- 41
2019-09-02 20:00:00 27.9 14 Norte 27 Norte 0 -- -- 38
2019-09-02 19:00:00 28.8 12 Norte 23 Norte 0 -- -- 38
2019-09-02 18:00:00 28.9 7 Norte 22 Norte 0 -- -- 39
2019-09-02 17:00:00 28.6 10 Nordeste 22 Norte 0 -- -- 39
2019-09-02 16:00:00 27.7 14 Norte 25 Noroeste 0 -- -- 41
2019-09-02 15:00:00 26.1 12 Norte 25 Norte 0 -- -- 45
2019-09-02 14:00:00 24.3 12 Norte 26 Norte 0 -- -- 48
2019-09-02 13:00:00 22.2 13 Nordeste 28 Nordeste 0 -- -- 54
2019-09-02 12:00:00 20.1 12 Norte 24 Norte 0 -- -- 60
2019-09-02 11:00:00 18 13 Norte 23 Nordeste 0 -- -- 67
2019-09-02 10:00:00 15.7 13 Norte 22 Norte 0 -- -- 76
2019-09-02 09:00:00 14.3 12 Norte 19 Norte 0 -- -- 84
2019-09-02 08:00:00 13.6 10 Norte 20 Norte 0 -- -- 85
2019-09-02 07:00:00 14.5 14 Norte 19 Norte 0 -- -- 82
2019-09-02 06:00:00 15 8 Norte 18 Norte 0 -- -- 80
2019-09-02 05:00:00 15.9 12 Norte 22 Norte 0 -- -- 76
2019-09-02 04:00:00 17.3 12 Norte 27 Nordeste 0 -- -- 70
2019-09-02 03:00:00 18 14 Norte 20 Norte 0 -- -- 65
2019-09-02 02:00:00 18.3 5 Norte 17 Norte 0 -- -- 62
2019-09-02 01:00:00 20.3 12 Noroeste 16 Noroeste 0 -- -- 52
2019-09-02 00:00:00 21.4 10 Noroeste 17 Noroeste 0 -- -- 48
2019-09-01 23:00:00 22.4 4 Noroeste 9 Nordeste 0 -- -- 45
2019-09-01 22:00:00 24.4 7 Nordeste 12 Nordeste 0 -- -- 42
2019-09-01 21:00:00 26.1 9 Norte 17 Norte 0 -- -- 40
2019-09-01 20:00:00 28.6 5 Noroeste 15 Noroeste 0 -- -- 36
2019-09-01 19:00:00 28.9 12 Noroeste 20 Noroeste 0 -- -- 36
2019-09-01 18:00:00 29.9 11 Sudoeste 27 Noroeste 0 -- -- 34
2019-09-01 17:00:00 28.9 6 Noroeste 26 Norte 0 -- -- 39
2019-09-01 16:00:00 27.6 12 Norte 22 Norte 0 -- -- 42
2019-09-01 15:00:00 27 9 Norte 15 Norte 0 -- -- 46
2019-09-01 14:00:00 25.2 6 Norte 19 Noroeste 0 -- -- 51
2019-09-01 13:00:00 24.2 7 Norte 14 Norte 0 -- -- 57
2019-09-01 12:00:00 21.9 6 Norte 13 Norte 0 -- -- 63
2019-09-01 11:00:00 19.6 6 Nordeste 13 Norte 0 -- -- 71
2019-09-01 10:00:00 17.1 6 Norte 10 Norte 0 -- -- 83
2019-09-01 09:00:00 15.1 5 Norte 10 Norte 0 -- -- 90
2019-09-01 08:00:00 13.2 2 Sur 15 Sudeste 0 -- -- 90
2019-09-01 07:00:00 13.5 10 Sur 14 Sur 0 -- -- 89
2019-09-01 06:00:00 14.2 9 Sur 12 Sur 0 -- -- 86
2019-09-01 05:00:00 15 5 Sur 9 Sur 0 -- -- 84
2019-09-01 04:00:00 16 5 Sur 8 Sur 0 -- -- 82
2019-09-01 03:00:00 17.3 5 Sur 7 Sur 0 -- -- 76
2019-09-01 02:00:00 18.8 3 Sur 6 Oeste 0 -- -- 71
2019-09-01 01:00:00 19.5 4 Sudoeste 5 Norte 0 -- -- 67
2019-09-01 00:00:00 20.9 5 Norte 12 Norte 0 -- -- 62
2019-08-31 23:00:00 22.3 6 Oeste 10 Noroeste 0 -- -- 55
2019-08-31 22:00:00 23.8 9 Noroeste 17 Noroeste 0 -- -- 51
2019-08-31 21:00:00 25.9 15 Noroeste 30 Noroeste 0 -- -- 45
2019-08-31 20:00:00 28.8 19 Noroeste 30 Oeste 0 -- -- 37
2019-08-31 19:00:00 31.5 17 Sudoeste 28 Sudoeste 0 -- -- 30
2019-08-31 18:00:00 31.8 12 Oeste 33 Sur 0 -- -- 28
2019-08-31 17:00:00 31.3 18 Sudoeste 34 Sudoeste 0 -- -- 30
2019-08-31 16:00:00 32.1 14 Sur 37 Sur 0 -- -- 30
2019-08-31 15:00:00 31.6 14 Sudoeste 31 Sur 0 -- -- 31
2019-08-31 14:00:00 30.7 13 Sudoeste 23 Sudoeste 0 -- -- 31
2019-08-31 13:00:00 29.6 6 Sudoeste 19 Sur 0 -- -- 35
2019-08-31 12:00:00 28 9 Sur 22 Sur 0 -- -- 38
2019-08-31 11:00:00 25.7 13 Sur 19 Sur 0 -- -- 42
2019-08-31 10:00:00 21.6 4 Sur 8 Sur 0 -- -- 55
2019-08-31 09:00:00 16.9 6 Sur 10 Sur 0 -- -- 74
2019-08-31 08:00:00 14.4 6 Sur 13 Sur 0 -- -- 80
2019-08-31 07:00:00 14.9 9 Sur 12 Sur 0 -- -- 77
2019-08-31 06:00:00 15.3 9 Sur 14 Sur 0 -- -- 75
2019-08-31 05:00:00 15.7 9 Sudeste 17 Sudeste 0 -- -- 77
2019-08-31 04:00:00 16.4 9 Sur 15 Sur 0 -- -- 73
2019-08-31 03:00:00 17.7 7 Sur 14 Sur 0 -- -- 68
2019-08-31 02:00:00 19.6 6 Sudoeste 12 Sur 0 -- -- 57
2019-08-31 01:00:00 21.2 7 Sur 18 Sudeste 0 -- -- 52
2019-08-31 00:00:00 22.4 7 Noroeste 14 Noroeste 0 -- -- 47
2019-08-30 23:00:00 23.8 9 Noroeste 22 Norte 0 -- -- 44
2019-08-30 22:00:00 25.9 9 Norte 19 Noroeste 0 -- -- 38
2019-08-30 21:00:00 28.6 5 Sur 15 Sudoeste 0 -- -- 35
2019-08-30 20:00:00 30.7 10 Sudoeste 23 Sur 0 -- -- 31
2019-08-30 19:00:00 31.5 10 Sur 28 Sudoeste 0 -- -- 29
2019-08-30 18:00:00 32 16 Sudoeste 31 Sudoeste 0 -- -- 29
2019-08-30 17:00:00 32.2 18 Sudoeste 31 Sur 0 -- -- 29
2019-08-30 16:00:00 31.8 18 Sur 32 Sur 0 -- -- 30
2019-08-30 15:00:00 31.6 19 Sudoeste 30 Sudoeste 0 -- -- 30
2019-08-30 14:00:00 31.2 15 Sudoeste 26 Sudoeste 0 -- -- 32
2019-08-30 13:00:00 30.5 13 Sudoeste 22 Oeste 0 -- -- 31
2019-08-30 12:00:00 29.1 9 Sudoeste 18 Sudoeste 0 -- -- 31
2019-08-30 11:00:00 26 6 Sur 13 Sudeste 0 -- -- 40
2019-08-30 10:00:00 19.5 8 Sur 15 Sur 0 -- -- 65
2019-08-30 09:00:00 14.6 12 Sur 15 Sur 0 -- -- 81
2019-08-30 08:00:00 13.2 8 Sur 16 Sur 0 -- -- 83
2019-08-30 07:00:00 13.6 10 Sur 17 Sudeste 0 -- -- 83
2019-08-30 06:00:00 14.1 10 Sur 13 Sur 0 -- -- 81
2019-08-30 05:00:00 15 9 Sur 13 Sur 0 -- -- 78
2019-08-30 04:00:00 15.6 8 Sur 12 Sur 0 -- -- 76
2019-08-30 03:00:00 16.2 10 Sur 13 Sur 0 -- -- 74
2019-08-30 02:00:00 18.2 7 Sur 9 Sur 0 -- -- 65
2019-08-30 01:00:00 19.3 5 Nordeste 9 Sudeste 0 -- -- 60
2019-08-30 00:00:00 21 5 Sudeste 8 Este 0 -- -- 55
2019-08-29 23:00:00 22.7 4 Noroeste 16 Noroeste 0 -- -- 49
2019-08-29 22:00:00 24.7 8 Noroeste 18 Noroeste 0 -- -- 44
2019-08-29 21:00:00 27.3 9 Sudoeste 17 Sudoeste 0 -- -- 32
2019-08-29 20:00:00 29.8 12 Sudoeste 20 Sudoeste 0 -- -- 28
2019-08-29 19:00:00 31 14 Sudoeste 27 Sur 0 -- -- 27
2019-08-29 18:00:00 31.1 13 Sur 30 Sudoeste 0 -- -- 27
2019-08-29 17:00:00 31.3 15 Sur 31 Sur 0 -- -- 28
2019-08-29 16:00:00 30.3 19 Sur 35 Sur 0 -- -- 29
2019-08-29 15:00:00 29.9 22 Sur 38 Sur 0 -- -- 33
2019-08-29 14:00:00 29.6 23 Sur 44 Sur 0 -- -- 33
2019-08-29 13:00:00 29.2 17 Sur 31 Sur 0 -- -- 35
2019-08-29 12:00:00 27.9 17 Sur 31 Sur 0 -- -- 37
2019-08-29 11:00:00 23.7 3 Sur 8 Sudoeste 0 -- -- 56
2019-08-29 10:00:00 18.5 3 Sur 8 Sudeste 0 -- -- 81
2019-08-29 09:00:00 13.8 4 Sur 13 Sur 0 -- -- 89
2019-08-29 08:00:00 12.6 9 Sur 13 Sur 0 -- -- 89
2019-08-29 07:00:00 13 10 Sur 14 Sudeste 0 -- -- 88
2019-08-29 06:00:00 13.5 9 Sur 12 Sur 0 -- -- 87
2019-08-29 05:00:00 14.4 8 Sur 10 Sur 0 -- -- 86
2019-08-29 04:00:00 15.7 5 Sur 9 Sur 0 -- -- 80
2019-08-29 03:00:00 16.8 7 Sur 9 Sudeste 0 -- -- 73
2019-08-29 02:00:00 17.6 6 Sur 10 Sudeste 0 -- -- 73
2019-08-29 01:00:00 19.9 6 Norte 8 Norte 0 -- -- 66
2019-08-29 00:00:00 20.9 5 Norte 9 Oeste 0 -- -- 54
2019-08-28 23:00:00 22.1 8 Sur 12 Sur 0 -- -- 47
2019-08-28 22:00:00 23.7 7 Sur 12 Sur 0 -- -- 43
2019-08-28 21:00:00 26.2 9 Sur 13 Sur 0 -- -- 39
2019-08-28 20:00:00 28.2 9 Sur 18 Sur 0 -- -- 35
2019-08-28 19:00:00 29 8 Sur 22 Sur 0 -- -- 35
2019-08-28 18:00:00 29.4 6 Sudoeste 23 Sur 0 -- -- 36
2019-08-28 17:00:00 29.2 7 Sudoeste 22 Sur 0 -- -- 36
2019-08-28 16:00:00 28.5 14 Sur 33 Sur 0 -- -- 38
2019-08-28 15:00:00 27.7 14 Sur 27 Sur 0 -- -- 40
2019-08-28 14:00:00 27.3 14 Sudoeste 33 Sur 0 -- -- 43
2019-08-28 13:00:00 26.3 16 Sur 26 Sudoeste 0 -- -- 43
2019-08-28 12:00:00 25.4 9 Sur 19 Sur 0 -- -- 48
2019-08-28 11:00:00 23 10 Sur 14 Sudoeste 0 -- -- 59
2019-08-28 10:00:00 17.9 4 Sur 11 Sur 0 -- -- 88
2019-08-28 09:00:00 14.5 8 Sur 13 Sur 0 -- -- 94
2019-08-28 08:00:00 13.2 11 Sur 15 Sur 0 -- -- 93
2019-08-28 07:00:00 13.4 9 Sur 14 Sur 0 -- -- 92
2019-08-28 06:00:00 13.9 10 Sur 14 Sur 0 -- -- 91
2019-08-28 05:00:00 14.5 8 Sur 12 Sur 0 -- -- 89
2019-08-28 04:00:00 15.6 6 Sur 10 Sur 0 -- -- 86
2019-08-28 03:00:00 16.3 7 Sur 10 Sur 0 -- -- 84
2019-08-28 02:00:00 17.8 5 Sur 8 Sur 0 -- -- 78
2019-08-28 01:00:00 19.1 4 Sur 8 Oeste 0 -- -- 73
2019-08-28 00:00:00 19.9 4 Noroeste 10 Noroeste 0 -- -- 65
2019-08-27 23:00:00 20.5 6 Oeste 10 Sur 0 -- -- 64
2019-08-27 22:00:00 22.7 6 Sur 10 Sur 0 -- -- 56
2019-08-27 21:00:00 24.6 2 Noroeste 13 Noroeste 0 -- -- 45
2019-08-27 20:00:00 26 9 Noroeste 21 Noroeste 0 -- -- 41
2019-08-27 19:00:00 28 9 Noroeste 17 Noroeste 0 -- -- 38
2019-08-27 18:00:00 27.1 6 Oeste 17 Norte 0 -- -- 37
2019-08-27 17:00:00 26.6 10 Norte 18 Norte 0 -- -- 41
2019-08-27 16:00:00 26 11 Noroeste 20 Noroeste 0 -- -- 43
2019-08-27 15:00:00 26.2 6 Oeste 21 Oeste 0 -- -- 42
2019-08-27 14:00:00 24.7 8 Sudoeste 22 Oeste 0 -- -- 51
2019-08-27 13:00:00 22.8 3 Norte 12 Noroeste 0 -- -- 58
2019-08-27 12:00:00 21.4 3 Sudeste 10 Oeste 0 -- -- 66
2019-08-27 11:00:00 18.7 5 Sudoeste 10 Sur 0 -- -- 78
2019-08-27 10:00:00 16 7 Sur 10 Sur 0 -- -- 89
2019-08-27 09:00:00 13.7 6 Sudeste 11 Sur 0 -- -- 93
2019-08-27 08:00:00 12.8 5 Sur 13 Sur 0 -- -- 95
2019-08-27 07:00:00 12.8 9 Sur 16 Sur 0 -- -- 93
2019-08-27 06:00:00 13.5 9 Sur 12 Sur 0 -- -- 91
2019-08-27 05:00:00 13.7 9 Sur 13 Sur 0 -- -- 92
2019-08-27 04:00:00 13.9 8 Sur 11 Sur 0 -- -- 92
2019-08-27 03:00:00 14.3 7 Sudeste 10 Sur 0 -- -- 91
2019-08-27 02:00:00 15 8 Sur 10 Sudeste 0 -- -- 88
2019-08-27 01:00:00 15.8 5 Sur 12 Sudeste 0 -- -- 84
2019-08-27 00:00:00 16.5 3 Oeste 15 Oeste 0 -- -- 81
2019-08-26 23:00:00 17 8 Oeste 17 Oeste 0 -- -- 78
2019-08-26 22:00:00 17.9 2 Este 15 Noroeste 0 -- -- 74
2019-08-26 21:00:00 19.5 15 Noroeste 28 Noroeste 0 -- -- 68
2019-08-26 20:00:00 21.7 19 Noroeste 30 Noroeste 0 -- -- 52
2019-08-26 19:00:00 23.4 15 Noroeste 29 Oeste 0 -- -- 47
2019-08-26 18:00:00 24.6 17 Noroeste 29 Noroeste 0 -- -- 44
2019-08-26 17:00:00 24.7 15 Oeste 23 Noroeste 0 -- -- 45
2019-08-26 16:00:00 22.7 12 Noroeste 23 Noroeste 0 -- -- 55
2019-08-26 15:00:00 23 10 Oeste 18 Oeste 0 -- -- 53
2019-08-26 14:00:00 20.1 5 Sur 12 Sudeste 0 -- -- 62
2019-08-26 13:00:00 18.1 4 Este 29 Sudeste 0 -- -- 71
2019-08-26 12:00:00 17.2 16 Sudeste -- -- -- -- -- 81
2019-08-26 11:00:00 -- -- -- -- -- -- -- -- --
2019-08-26 10:00:00 -- -- -- -- -- -- -- -- --
2019-08-26 09:00:00 -- -- -- -- -- -- -- -- --
2019-08-26 08:00:00 -- -- -- -- -- -- -- -- --
2019-08-26 07:00:00 -- -- -- -- -- -- -- -- --
2019-08-26 06:00:00 -- -- -- -- -- -- -- -- --
2019-08-26 05:00:00 -- -- -- -- -- -- -- -- --
2019-08-26 04:00:00 -- -- -- -- -- -- -- -- --
2019-08-26 03:00:00 -- -- -- -- -- -- -- -- --
2019-08-26 02:00:00 -- -- -- -- -- -- -- -- --
2019-08-26 01:00:00 -- -- -- -- -- -- -- -- --
2019-08-26 00:00:00 -- -- -- -- -- -- -- -- --
2019-08-25 23:00:00 -- -- -- -- -- -- -- -- --
2019-08-25 22:00:00 -- -- -- -- -- -- -- -- --
2019-08-25 21:00:00 -- -- -- -- -- -- -- -- --
2019-08-25 20:00:00 -- -- -- -- -- -- -- -- --
2019-08-25 19:00:00 -- -- -- -- -- -- -- -- --
2019-08-25 18:00:00 -- -- -- -- -- -- -- -- --
2019-08-25 17:00:00 -- -- -- -- -- -- -- -- --
2019-08-25 16:00:00 -- -- -- -- -- -- -- -- --
2019-08-25 15:00:00 -- -- -- -- -- -- -- -- --
2019-08-25 14:00:00 -- -- -- -- -- -- -- -- --
2019-08-25 13:00:00 -- -- -- -- -- -- -- -- --
2019-08-25 12:00:00 -- -- -- -- -- -- -- -- --
2019-08-25 11:00:00 -- -- -- -- -- -- -- -- --
2019-08-25 10:00:00 -- -- -- -- -- -- -- -- --
2019-08-25 09:00:00 -- -- -- -- -- -- -- -- --
2019-08-25 08:00:00 -- -- -- -- -- -- -- -- --
2019-08-25 07:00:00 -- -- -- -- -- -- -- -- --
2019-08-25 06:00:00 -- -- -- -- -- -- -- -- --
2019-08-25 05:00:00 -- -- -- -- -- -- -- -- --
2019-08-25 04:00:00 -- -- -- -- -- -- -- -- --
2019-08-25 03:00:00 -- -- -- -- -- -- -- -- --
2019-08-25 02:00:00 -- -- -- -- -- -- -- -- --
2019-08-25 01:00:00 21 5 Sudoeste 8 Noroeste 0 -- -- 56
2019-08-25 00:00:00 22.9 5 Norte 19 Noroeste 0 -- -- 51
2019-08-24 23:00:00 24 13 Noroeste 26 Noroeste 0 -- -- 50
2019-08-24 22:00:00 26.1 15 Noroeste 21 Noroeste 0 -- -- 42
2019-08-24 21:00:00 28.8 8 Sur 21 Sur 0 -- -- 27
2019-08-24 20:00:00 31.4 14 Sur 24 Sur 0 -- -- 24
2019-08-24 19:00:00 31.9 15 Sur 23 Sur 0 -- -- 24
2019-08-24 18:00:00 32.5 12 Oeste 26 Sur 0 -- -- 23
2019-08-24 17:00:00 32 14 Sur 33 Sur 0 -- -- 24
2019-08-24 16:00:00 32.8 11 Oeste 57 Sudoeste 0 -- -- 23
2019-08-24 15:00:00 32.2 17 Oeste 27 Sur 0 -- -- 24
2019-08-24 14:00:00 31.3 12 Sur 30 Sudoeste 0 -- -- 24
2019-08-24 13:00:00 30.8 14 Sur 27 Sur 0 -- -- 25
2019-08-24 12:00:00 29.5 11 Sudeste 20 Sudeste 0 -- -- 27
2019-08-24 11:00:00 26 4 Norte 8 Norte 0 -- -- 42
2019-08-24 10:00:00 20.9 4 Sur 13 Sur 0 -- -- 55
2019-08-24 09:00:00 15.5 9 Sur 17 Sur 0 -- -- 73
2019-08-24 08:00:00 14.5 13 Sur 16 Sur 0 -- -- 75
2019-08-24 07:00:00 14.6 13 Sur 18 Sudeste 0 -- -- 74
2019-08-24 06:00:00 15.6 10 Sur 17 Sudeste 0 -- -- 71
2019-08-24 05:00:00 16.2 11 Sur 15 Sur 0 -- -- 68
2019-08-24 04:00:00 16.4 12 Sur 15 Sur 0 -- -- 67
2019-08-24 03:00:00 18.7 9 Sur 12 Sur 0 -- -- 59
2019-08-24 02:00:00 20.2 8 Sur 12 Sudeste 0 -- -- 55
2019-08-24 01:00:00 22.7 4 Este 12 Noroeste 0 -- -- 48
2019-08-24 00:00:00 23.9 9 Noroeste 18 Oeste 0 -- -- 44
2019-08-23 23:00:00 24 8 Sur 12 Sur 0 -- -- 39
2019-08-23 22:00:00 25.9 8 Sur 12 Sur 0 -- -- 35
2019-08-23 21:00:00 29 9 Sudoeste 17 Sur 0 -- -- 30
2019-08-23 20:00:00 30 6 Sudoeste 14 Sudoeste 0 -- -- 28
2019-08-23 19:00:00 30.4 3 Oeste 12 Sur 0 -- -- 27
2019-08-23 18:00:00 30.2 3 Este 10 Este 0 -- -- 28
2019-08-23 17:00:00 30.2 6 Nordeste 16 Oeste 0 -- -- 28
2019-08-23 16:00:00 31.9 9 Sudeste 28 Sur 0 -- -- 26
2019-08-23 15:00:00 32.2 9 Sur 30 Sur 0 -- -- 27
2019-08-23 14:00:00 31 17 Sur 32 Sur 0 -- -- 28
2019-08-23 13:00:00 30.4 9 Sudeste 27 Sur 0 -- -- 28
2019-08-23 12:00:00 28.8 18 Sur 28 Sur 0 -- -- 28
2019-08-23 11:00:00 24.6 5 Noroeste 9 Noroeste 0 -- -- 28
2019-08-23 10:00:00 20.4 3 Norte 8 Norte 0 -- -- 34
2019-08-23 09:00:00 17.3 5 Norte 13 Nordeste 0 -- -- 42
2019-08-23 08:00:00 15.1 6 Norte 8 Sudeste 0 -- -- 57
2019-08-23 07:00:00 14.6 7 Sur 9 Sudeste 0 -- -- 66
2019-08-23 06:00:00 14.8 5 Sur 19 Sur 0 -- -- 62
2019-08-23 05:00:00 15 13 Sur 16 Sur 0 -- -- 66
2019-08-23 04:00:00 15.4 13 Sur 16 Sur 0 -- -- 68
2019-08-23 03:00:00 17.7 9 Sur 12 Sur 0 -- -- 48
2019-08-23 02:00:00 19.8 6 Nordeste 8 Nordeste 0 -- -- 39
2019-08-23 01:00:00 20.4 4 Este 9 Nordeste 0 -- -- 41
2019-08-23 00:00:00 22.4 7 Este 14 Este 0 -- -- 36
2019-08-22 23:00:00 24.1 9 Este 17 Este 0 -- -- 31
2019-08-22 22:00:00 25.7 4 Norte 17 Este 0 -- -- 30
2019-08-22 21:00:00 28 10 Nordeste 27 Nordeste 0 -- -- 28
2019-08-22 20:00:00 29.7 13 Nordeste 26 Nordeste 0 -- -- 26
2019-08-22 19:00:00 30.7 13 Nordeste 28 Norte 0 -- -- 26
2019-08-22 18:00:00 31.2 11 Norte 23 Nordeste 0 -- -- 28
2019-08-22 17:00:00 29.3 5 Norte 21 Noroeste 0 -- -- 32
2019-08-22 16:00:00 30.5 6 Nordeste 27 Nordeste 0 -- -- 31
2019-08-22 15:00:00 29.6 12 Norte 19 Este 0 -- -- 34
2019-08-22 14:00:00 28.5 8 Norte 17 Noroeste 0 -- -- 36
2019-08-22 13:00:00 26.2 9 Norte 18 Norte 0 -- -- 42
2019-08-22 12:00:00 23.9 10 Norte 16 Norte 0 -- -- 45
2019-08-22 11:00:00 20.7 6 Norte 10 Norte 0 -- -- 52
2019-08-22 10:00:00 18.1 5 Norte 8 Norte 0 -- -- 58
2019-08-22 09:00:00 14.8 0 Calma 4 Noroeste 0 -- -- 70
2019-08-22 08:00:00 14.1 0 Calma 8 Noroeste 0 -- -- 70
2019-08-22 07:00:00 14.1 3 Oeste 10 Sur 0 -- -- 72
2019-08-22 06:00:00 14.1 3 Sur 13 Sur 0 -- -- 74
2019-08-22 05:00:00 14.8 10 Sur 15 Sur 0 -- -- 73
2019-08-22 04:00:00 15.5 2 Sudoeste 12 Nordeste 0 -- -- 68
2019-08-22 03:00:00 16.3 9 Sur 13 Sudeste 0 -- -- 67
2019-08-22 02:00:00 18.2 5 Sur 10 Sudeste 0 -- -- 59
2019-08-22 01:00:00 20.3 8 Sudeste 13 Sudeste 0 -- -- 53
2019-08-22 00:00:00 21.4 4 Nordeste 14 Este 0 -- -- 47
2019-08-21 23:00:00 23.2 5 Nordeste 11 Norte 0 -- -- 44
2019-08-21 22:00:00 24.9 6 Norte 11 Noroeste 0 -- -- 39
2019-08-21 21:00:00 26.7 9 Norte 20 Norte 0 -- -- 36
2019-08-21 20:00:00 28.3 11 Norte 23 Norte 0 -- -- 33
2019-08-21 19:00:00 29.1 8 Nordeste 21 Norte 0 -- -- 32
2019-08-21 18:00:00 28.9 12 Norte 18 Noroeste 0 -- -- 32
2019-08-21 17:00:00 28.5 10 Norte 21 Norte 0 -- -- 34
2019-08-21 16:00:00 27.9 7 Nordeste 21 Norte 0 -- -- 33
2019-08-21 15:00:00 26.6 11 Norte 21 Norte 0 -- -- 40
2019-08-21 14:00:00 24.5 10 Norte 22 Norte 0 -- -- 44
2019-08-21 13:00:00 22.8 3 Noroeste 12 Noroeste 0 -- -- 49
2019-08-21 12:00:00 19.5 5 Nordeste 12 Norte 0 -- -- 57
2019-08-21 11:00:00 18 5 Norte 15 Noroeste 0 -- -- 60
2019-08-21 10:00:00 15.9 4 Norte 14 Noroeste 0 -- -- 67
2019-08-21 09:00:00 14.6 8 Norte 16 Noroeste 0 -- -- 71
2019-08-21 08:00:00 14.2 8 Norte 16 Norte 0 -- -- 72
2019-08-21 07:00:00 14.7 10 Norte 18 Norte 0 -- -- 69
2019-08-21 06:00:00 15.3 12 Norte 20 Norte 0 -- -- 65
2019-08-21 05:00:00 16.3 9 Norte 18 Norte 0 -- -- 62
2019-08-21 04:00:00 16.7 9 Norte 14 Norte 0 -- -- 60
2019-08-21 03:00:00 17.4 4 Nordeste 22 Norte 0 -- -- 57
2019-08-21 02:00:00 18.1 12 Norte 22 Norte 0 -- -- 53
2019-08-21 01:00:00 18.6 10 Norte 21 Nordeste 0 -- -- 46
2019-08-21 00:00:00 20.1 12 Norte 25 Nordeste 0 -- -- 41